EGNX/EMA METAR and TAF weather

Enter ICAO airport designator
Station Type Date Time Source
EGNX METAR 2021/05/14 04:50 UTC NOAA

EGNX 140450Z 02005KT 350V050 9000 BKN008 07/05 Q1010


Station Type Date Time Source
EGNX Decoded METAR 2021/05/14 04:50 UTC NOAA

East Midlands, United Kingdom (EGNX) 52-50N 001-20W
May 14, 2021 - 12:50 AM EDT / 2021.05.14 0450 UTC
Wind: from the NNE (020 degrees) at 6 MPH (5 KT) (direction variable):0
Visibility: 5 mile(s):0
Sky conditions: mostly cloudy
Temperature: 44 F (7 C)
Dew Point: 41 F (5 C)
Relative Humidity: 87%
Pressure (altimeter): 29.83 in. Hg (1010 hPa)
ob: EGNX 140450Z 02005KT 350V050 9000 BKN008 07/05 Q1010
cycle: 5

Station Type Date Time Source
EGNX TAF 2021/05/13 18:09 UTC NOAA

TAF EGNX 131658Z 1318/1418 09008KT 9999 SCT038
TEMPO 1318/1321 7000 SHRA PROB30
TEMPO 1318/1320 3000 +SHRA TSRA BKN014 BKN025CB PROB40
TEMPO 1321/1324 7000 RA BKN014
TEMPO 1400/1409 8000 -RA BKN007 PROB30
TEMPO 1402/1409 BKN004 PROB40 1409/1413 BKN014

Example: see airport list